sensor_id;sensor_type;location;lat;lon;timestamp;P1;durP1;ratioP1;P2;durP2;ratioP2
63699;SDS011;49845;47.130;142.766;2023-09-07T00:02:16;5.50;;;2.80;;
63699;SDS011;49845;47.130;142.766;2023-09-07T00:05:06;5.20;;;3.20;;
63699;SDS011;49845;47.130;142.766;2023-09-07T00:07:38;4.13;;;2.93;;
63699;SDS011;49845;47.130;142.766;2023-09-07T00:10:09;7.87;;;3.43;;
63699;SDS011;49845;47.130;142.766;2023-09-07T00:12:39;6.20;;;3.10;;
63699;SDS011;49845;47.130;142.766;2023-09-07T00:15:10;5.77;;;3.43;;
63699;SDS011;49845;47.130;142.766;2023-09-07T00:17:40;7.07;;;3.10;;
63699;SDS011;49845;47.130;142.766;2023-09-07T00:20:13;6.77;;;3.50;;
63699;SDS011;49845;47.130;142.766;2023-09-07T00:22:43;5.53;;;3.07;;
63699;SDS011;49845;47.130;142.766;2023-09-07T00:25:14;6.13;;;3.10;;
63699;SDS011;49845;47.130;142.766;2023-09-07T00:27:45;6.83;;;3.33;;
63699;SDS011;49845;47.130;142.766;2023-09-07T00:30:15;6.67;;;3.70;;
63699;SDS011;49845;47.130;142.766;2023-09-07T00:33:08;6.07;;;3.33;;
63699;SDS011;49845;47.130;142.766;2023-09-07T00:35:50;6.43;;;3.40;;
63699;SDS011;49845;47.130;142.766;2023-09-07T00:38:33;6.23;;;3.70;;
63699;SDS011;49845;47.130;142.766;2023-09-07T00:41:15;6.10;;;3.57;;
63699;SDS011;49845;47.130;142.766;2023-09-07T00:43:47;5.70;;;3.23;;
63699;SDS011;49845;47.130;142.766;2023-09-07T00:46:18;5.30;;;3.47;;
63699;SDS011;49845;47.130;142.766;2023-09-07T00:48:49;5.97;;;3.03;;
63699;SDS011;49845;47.130;142.766;2023-09-07T00:51:22;5.00;;;3.20;;
63699;SDS011;49845;47.130;142.766;2023-09-07T00:53:53;5.50;;;3.00;;
63699;SDS011;49845;47.130;142.766;2023-09-07T00:56:24;5.40;;;3.07;;
63699;SDS011;49845;47.130;142.766;2023-09-07T00:58:55;4.43;;;2.83;;
63699;SDS011;49845;47.130;142.766;2023-09-07T01:01:27;6.87;;;2.97;;
63699;SDS011;49845;47.130;142.766;2023-09-07T01:04:00;3.83;;;2.77;;
63699;SDS011;49845;47.130;142.766;2023-09-07T01:06:35;6.47;;;2.93;;
63699;SDS011;49845;47.130;142.766;2023-09-07T01:09:10;5.27;;;2.90;;
63699;SDS011;49845;47.130;142.766;2023-09-07T01:11:45;4.47;;;2.60;;
63699;SDS011;49845;47.130;142.766;2023-09-07T01:14:15;5.73;;;2.70;;
63699;SDS011;49845;47.130;142.766;2023-09-07T01:16:46;3.70;;;2.23;;
63699;SDS011;49845;47.130;142.766;2023-09-07T01:19:18;6.37;;;2.73;;
63699;SDS011;49845;47.130;142.766;2023-09-07T01:21:51;4.30;;;2.60;;
63699;SDS011;49845;47.130;142.766;2023-09-07T01:24:22;4.17;;;2.70;;
63699;SDS011;49845;47.130;142.766;2023-09-07T01:26:53;4.10;;;2.73;;
63699;SDS011;49845;47.130;142.766;2023-09-07T01:29:25;5.23;;;2.43;;
63699;SDS011;49845;47.130;142.766;2023-09-07T01:31:57;4.97;;;2.80;;
63699;SDS011;49845;47.130;142.766;2023-09-07T01:34:27;5.20;;;2.90;;
63699;SDS011;49845;47.130;142.766;2023-09-07T01:37:00;6.00;;;3.03;;
63699;SDS011;49845;47.130;142.766;2023-09-07T01:39:31;5.27;;;3.13;;
63699;SDS011;49845;47.130;142.766;2023-09-07T01:42:02;5.13;;;3.00;;
63699;SDS011;49845;47.130;142.766;2023-09-07T01:44:33;7.97;;;3.10;;
63699;SDS011;49845;47.130;142.766;2023-09-07T01:47:04;5.70;;;3.17;;
63699;SDS011;49845;47.130;142.766;2023-09-07T01:49:40;4.77;;;3.43;;
63699;SDS011;49845;47.130;142.766;2023-09-07T01:52:12;8.37;;;3.03;;
63699;SDS011;49845;47.130;142.766;2023-09-07T01:54:43;11.33;;;3.93;;
63699;SDS011;49845;47.130;142.766;2023-09-07T01:57:13;6.10;;;3.70;;
63699;SDS011;49845;47.130;142.766;2023-09-07T01:59:44;6.43;;;3.77;;
63699;SDS011;49845;47.130;142.766;2023-09-07T02:02:15;7.77;;;3.30;;
63699;SDS011;49845;47.130;142.766;2023-09-07T02:04:47;7.00;;;3.67;;
63699;SDS011;49845;47.130;142.766;2023-09-07T02:07:19;8.50;;;3.23;;
63699;SDS011;49845;47.130;142.766;2023-09-07T02:09:49;6.57;;;3.47;;
63699;SDS011;49845;47.130;142.766;2023-09-07T02:12:20;5.93;;;3.77;;
63699;SDS011;49845;47.130;142.766;2023-09-07T02:14:51;5.83;;;3.87;;
63699;SDS011;49845;47.130;142.766;2023-09-07T02:17:21;7.10;;;3.97;;
63699;SDS011;49845;47.130;142.766;2023-09-07T02:19:52;9.10;;;3.70;;
63699;SDS011;49845;47.130;142.766;2023-09-07T02:22:24;7.10;;;4.00;;
63699;SDS011;49845;47.130;142.766;2023-09-07T02:24:55;6.73;;;3.67;;
63699;SDS011;49845;47.130;142.766;2023-09-07T02:27:25;9.07;;;3.60;;
63699;SDS011;49845;47.130;142.766;2023-09-07T02:29:56;7.97;;;4.47;;
63699;SDS011;49845;47.130;142.766;2023-09-07T02:32:27;9.33;;;4.03;;
63699;SDS011;49845;47.130;142.766;2023-09-07T02:34:57;8.07;;;4.30;;
63699;SDS011;49845;47.130;142.766;2023-09-07T02:37:29;10.50;;;4.70;;
63699;SDS011;49845;47.130;142.766;2023-09-07T02:40:00;7.60;;;3.50;;
63699;SDS011;49845;47.130;142.766;2023-09-07T02:42:34;12.77;;;4.20;;
63699;SDS011;49845;47.130;142.766;2023-09-07T02:45:05;7.80;;;3.93;;
63699;SDS011;49845;47.130;142.766;2023-09-07T02:47:37;7.10;;;4.30;;
63699;SDS011;49845;47.130;142.766;2023-09-07T02:50:07;8.00;;;4.23;;
63699;SDS011;49845;47.130;142.766;2023-09-07T02:52:41;7.10;;;4.07;;
63699;SDS011;49845;47.130;142.766;2023-09-07T02:55:11;7.23;;;4.00;;
63699;SDS011;49845;47.130;142.766;2023-09-07T02:57:42;6.80;;;4.23;;
63699;SDS011;49845;47.130;142.766;2023-09-07T03:00:13;7.27;;;4.10;;
63699;SDS011;49845;47.130;142.766;2023-09-07T03:02:45;8.00;;;3.97;;
63699;SDS011;49845;47.130;142.766;2023-09-07T03:05:16;9.07;;;4.47;;
63699;SDS011;49845;47.130;142.766;2023-09-07T03:07:48;9.10;;;4.40;;
63699;SDS011;49845;47.130;142.766;2023-09-07T03:10:19;10.10;;;4.67;;
63699;SDS011;49845;47.130;142.766;2023-09-07T03:12:49;11.40;;;5.17;;
63699;SDS011;49845;47.130;142.766;2023-09-07T03:15:22;9.90;;;5.20;;
63699;SDS011;49845;47.130;142.766;2023-09-07T03:17:53;9.23;;;4.77;;
63699;SDS011;49845;47.130;142.766;2023-09-07T03:20:23;10.30;;;4.80;;
63699;SDS011;49845;47.130;142.766;2023-09-07T03:22:59;8.57;;;4.53;;
63699;SDS011;49845;47.130;142.766;2023-09-07T03:25:30;11.30;;;4.73;;
63699;SDS011;49845;47.130;142.766;2023-09-07T03:28:00;10.00;;;5.17;;
63699;SDS011;49845;47.130;142.766;2023-09-07T03:30:31;9.10;;;5.20;;
63699;SDS011;49845;47.130;142.766;2023-09-07T03:33:03;13.67;;;5.93;;
63699;SDS011;49845;47.130;142.766;2023-09-07T03:35:34;8.60;;;5.20;;
63699;SDS011;49845;47.130;142.766;2023-09-07T03:38:06;11.87;;;5.07;;
63699;SDS011;49845;47.130;142.766;2023-09-07T03:40:37;10.10;;;5.63;;
63699;SDS011;49845;47.130;142.766;2023-09-07T03:43:08;10.90;;;5.13;;
63699;SDS011;49845;47.130;142.766;2023-09-07T03:45:41;8.60;;;4.70;;
63699;SDS011;49845;47.130;142.766;2023-09-07T03:48:12;9.10;;;5.60;;
63699;SDS011;49845;47.130;142.766;2023-09-07T03:50:42;9.87;;;5.80;;
63699;SDS011;49845;47.130;142.766;2023-09-07T03:53:15;9.53;;;5.97;;
63699;SDS011;49845;47.130;142.766;2023-09-07T03:55:45;12.03;;;6.03;;
63699;SDS011;49845;47.130;142.766;2023-09-07T03:58:16;9.37;;;5.40;;
63699;SDS011;49845;47.130;142.766;2023-09-07T04:00:47;10.40;;;5.13;;
63699;SDS011;49845;47.130;142.766;2023-09-07T04:03:17;14.00;;;6.10;;
63699;SDS011;49845;47.130;142.766;2023-09-07T04:05:50;11.20;;;6.67;;
63699;SDS011;49845;47.130;142.766;2023-09-07T04:08:22;9.37;;;6.07;;
63699;SDS011;49845;47.130;142.766;2023-09-07T04:10:53;13.10;;;5.80;;
63699;SDS011;49845;47.130;142.766;2023-09-07T04:13:24;11.67;;;6.70;;
63699;SDS011;49845;47.130;142.766;2023-09-07T04:15:54;14.67;;;6.43;;
63699;SDS011;49845;47.130;142.766;2023-09-07T04:18:25;11.80;;;6.63;;
63699;SDS011;49845;47.130;142.766;2023-09-07T04:21:04;11.97;;;6.60;;
63699;SDS011;49845;47.130;142.766;2023-09-07T04:23:36;10.98;;;6.15;;
63699;SDS011;49845;47.130;142.766;2023-09-07T04:26:07;11.30;;;6.20;;
63699;SDS011;49845;47.130;142.766;2023-09-07T04:28:39;12.30;;;6.80;;
63699;SDS011;49845;47.130;142.766;2023-09-07T04:31:10;14.57;;;7.63;;
63699;SDS011;49845;47.130;142.766;2023-09-07T04:33:40;12.83;;;7.10;;
63699;SDS011;49845;47.130;142.766;2023-09-07T04:36:12;11.57;;;6.97;;
63699;SDS011;49845;47.130;142.766;2023-09-07T04:38:45;15.57;;;7.13;;
63699;SDS011;49845;47.130;142.766;2023-09-07T04:41:15;12.27;;;6.83;;
63699;SDS011;49845;47.130;142.766;2023-09-07T04:43:46;12.03;;;6.37;;
63699;SDS011;49845;47.130;142.766;2023-09-07T04:46:17;15.10;;;7.60;;
63699;SDS011;49845;47.130;142.766;2023-09-07T04:48:51;12.90;;;6.93;;
63699;SDS011;49845;47.130;142.766;2023-09-07T04:51:23;14.27;;;7.00;;
63699;SDS011;49845;47.130;142.766;2023-09-07T04:53:56;11.70;;;6.53;;
63699;SDS011;49845;47.130;142.766;2023-09-07T04:56:27;13.70;;;7.17;;
63699;SDS011;49845;47.130;142.766;2023-09-07T04:58:57;12.87;;;7.40;;
63699;SDS011;49845;47.130;142.766;2023-09-07T05:01:28;13.73;;;7.53;;
63699;SDS011;49845;47.130;142.766;2023-09-07T05:04:00;14.53;;;7.67;;
63699;SDS011;49845;47.130;142.766;2023-09-07T05:06:31;11.83;;;6.97;;
63699;SDS011;49845;47.130;142.766;2023-09-07T05:09:06;13.83;;;6.40;;
63699;SDS011;49845;47.130;142.766;2023-09-07T05:11:37;20.07;;;8.03;;
63699;SDS011;49845;47.130;142.766;2023-09-07T05:14:07;12.27;;;7.40;;
63699;SDS011;49845;47.130;142.766;2023-09-07T05:16:38;11.97;;;7.70;;
63699;SDS011;49845;47.130;142.766;2023-09-07T05:19:11;14.17;;;7.00;;
63699;SDS011;49845;47.130;142.766;2023-09-07T05:21:42;10.80;;;6.43;;
63699;SDS011;49845;47.130;142.766;2023-09-07T05:24:14;15.83;;;6.93;;
63699;SDS011;49845;47.130;142.766;2023-09-07T05:26:45;15.37;;;7.47;;
63699;SDS011;49845;47.130;142.766;2023-09-07T05:29:16;13.00;;;7.27;;
63699;SDS011;49845;47.130;142.766;2023-09-07T05:31:48;12.63;;;6.43;;
63699;SDS011;49845;47.130;142.766;2023-09-07T05:34:19;12.33;;;7.37;;
63699;SDS011;49845;47.130;142.766;2023-09-07T05:36:49;13.23;;;6.93;;
63699;SDS011;49845;47.130;142.766;2023-09-07T05:39:22;14.93;;;7.70;;
63699;SDS011;49845;47.130;142.766;2023-09-07T05:41:53;11.13;;;7.57;;
63699;SDS011;49845;47.130;142.766;2023-09-07T05:44:23;14.23;;;7.70;;
63699;SDS011;49845;47.130;142.766;2023-09-07T05:46:54;17.93;;;7.77;;
63699;SDS011;49845;47.130;142.766;2023-09-07T05:49:26;17.17;;;8.13;;
63699;SDS011;49845;47.130;142.766;2023-09-07T05:51:57;13.90;;;7.60;;
63699;SDS011;49845;47.130;142.766;2023-09-07T05:54:29;14.97;;;7.37;;
63699;SDS011;49845;47.130;142.766;2023-09-07T05:57:00;13.43;;;7.40;;
63699;SDS011;49845;47.130;142.766;2023-09-07T05:59:30;15.03;;;7.83;;
63699;SDS011;49845;47.130;142.766;2023-09-07T06:02:01;16.33;;;8.37;;
63699;SDS011;49845;47.130;142.766;2023-09-07T06:04:32;18.77;;;7.77;;
63699;SDS011;49845;47.130;142.766;2023-09-07T06:07:04;16.40;;;7.43;;
63699;SDS011;49845;47.130;142.766;2023-09-07T06:09:36;17.43;;;7.80;;
63699;SDS011;49845;47.130;142.766;2023-09-07T06:12:07;16.13;;;8.50;;
63699;SDS011;49845;47.130;142.766;2023-09-07T06:14:37;13.43;;;7.63;;
63699;SDS011;49845;47.130;142.766;2023-09-07T06:17:08;20.97;;;8.50;;
63699;SDS011;49845;47.130;142.766;2023-09-07T06:19:38;14.47;;;8.13;;
63699;SDS011;49845;47.130;142.766;2023-09-07T06:22:09;17.00;;;8.63;;
63699;SDS011;49845;47.130;142.766;2023-09-07T06:24:41;14.90;;;8.60;;
63699;SDS011;49845;47.130;142.766;2023-09-07T06:27:12;15.33;;;8.50;;
63699;SDS011;49845;47.130;142.766;2023-09-07T06:29:42;17.37;;;7.73;;
63699;SDS011;49845;47.130;142.766;2023-09-07T06:32:13;15.57;;;8.23;;
63699;SDS011;49845;47.130;142.766;2023-09-07T06:34:44;13.80;;;8.13;;
63699;SDS011;49845;47.130;142.766;2023-09-07T06:37:15;18.47;;;8.83;;
63699;SDS011;49845;47.130;142.766;2023-09-07T06:39:48;14.13;;;8.90;;
63699;SDS011;49845;47.130;142.766;2023-09-07T06:42:19;14.97;;;8.00;;
63699;SDS011;49845;47.130;142.766;2023-09-07T06:44:50;12.27;;;8.17;;
63699;SDS011;49845;47.130;142.766;2023-09-07T06:47:21;16.97;;;8.80;;
63699;SDS011;49845;47.130;142.766;2023-09-07T06:49:51;20.17;;;8.43;;
63699;SDS011;49845;47.130;142.766;2023-09-07T06:52:22;12.50;;;8.13;;
63699;SDS011;49845;47.130;142.766;2023-09-07T06:54:55;23.67;;;9.20;;
63699;SDS011;49845;47.130;142.766;2023-09-07T06:57:26;16.40;;;8.00;;
63699;SDS011;49845;47.130;142.766;2023-09-07T06:59:56;14.70;;;8.27;;
63699;SDS011;49845;47.130;142.766;2023-09-07T07:02:27;14.40;;;8.50;;
63699;SDS011;49845;47.130;142.766;2023-09-07T07:04:58;17.40;;;8.50;;
63699;SDS011;49845;47.130;142.766;2023-09-07T07:07:28;17.57;;;8.33;;
63699;SDS011;49845;47.130;142.766;2023-09-07T07:10:07;15.07;;;8.60;;
63699;SDS011;49845;47.130;142.766;2023-09-07T07:12:39;18.97;;;9.33;;
63699;SDS011;49845;47.130;142.766;2023-09-07T07:15:10;21.93;;;9.37;;
63699;SDS011;49845;47.130;142.766;2023-09-07T07:17:41;19.30;;;8.23;;
63699;SDS011;49845;47.130;142.766;2023-09-07T07:20:11;17.00;;;8.60;;
63699;SDS011;49845;47.130;142.766;2023-09-07T07:22:42;19.70;;;9.07;;
63699;SDS011;49845;47.130;142.766;2023-09-07T07:25:14;15.60;;;8.03;;
63699;SDS011;49845;47.130;142.766;2023-09-07T07:27:45;15.33;;;8.47;;
63699;SDS011;49845;47.130;142.766;2023-09-07T07:30:16;22.03;;;8.97;;
63699;SDS011;49845;47.130;142.766;2023-09-07T07:32:47;16.13;;;8.60;;
63699;SDS011;49845;47.130;142.766;2023-09-07T07:35:18;16.87;;;8.93;;
63699;SDS011;49845;47.130;142.766;2023-09-07T07:37:49;20.83;;;9.27;;
63699;SDS011;49845;47.130;142.766;2023-09-07T07:40:21;19.03;;;8.37;;
63699;SDS011;49845;47.130;142.766;2023-09-07T07:42:52;27.50;;;9.83;;
63699;SDS011;49845;47.130;142.766;2023-09-07T07:45:23;23.63;;;11.00;;
63699;SDS011;49845;47.130;142.766;2023-09-07T07:47:53;18.77;;;10.20;;
63699;SDS011;49845;47.130;142.766;2023-09-07T07:50:24;21.93;;;10.30;;
63699;SDS011;49845;47.130;142.766;2023-09-07T07:52:55;20.90;;;10.87;;
63699;SDS011;49845;47.130;142.766;2023-09-07T07:55:27;21.13;;;10.97;;
63699;SDS011;49845;47.130;142.766;2023-09-07T07:57:57;19.00;;;10.23;;
63699;SDS011;49845;47.130;142.766;2023-09-07T08:00:28;21.53;;;9.97;;
63699;SDS011;49845;47.130;142.766;2023-09-07T08:03:00;21.33;;;9.40;;
63699;SDS011;49845;47.130;142.766;2023-09-07T08:05:33;27.70;;;10.03;;
63699;SDS011;49845;47.130;142.766;2023-09-07T08:08:04;21.40;;;8.40;;
63699;SDS011;49845;47.130;142.766;2023-09-07T08:10:37;17.70;;;8.47;;
63699;SDS011;49845;47.130;142.766;2023-09-07T08:13:09;20.40;;;6.93;;
63699;SDS011;49845;47.130;142.766;2023-09-07T08:15:40;21.80;;;8.03;;
63699;SDS011;49845;47.130;142.766;2023-09-07T08:18:10;20.43;;;8.13;;
63699;SDS011;49845;47.130;142.766;2023-09-07T08:54:23;22.23;;;10.10;;
63699;SDS011;49845;47.130;142.766;2023-09-07T08:56:56;18.97;;;10.20;;
63699;SDS011;49845;47.130;142.766;2023-09-07T08:59:27;16.27;;;9.63;;
63699;SDS011;49845;47.130;142.766;2023-09-07T09:02:00;17.57;;;8.57;;
63699;SDS011;49845;47.130;142.766;2023-09-07T09:04:32;16.73;;;10.20;;
63699;SDS011;49845;47.130;142.766;2023-09-07T09:07:19;19.60;;;11.67;;
63699;SDS011;49845;47.130;142.766;2023-09-07T09:10:04;18.23;;;9.23;;
63699;SDS011;49845;47.130;142.766;2023-09-07T09:13:04;19.23;;;8.93;;
63699;SDS011;49845;47.130;142.766;2023-09-07T09:15:47;22.50;;;9.27;;
63699;SDS011;49845;47.130;142.766;2023-09-07T09:18:19;20.97;;;9.03;;
63699;SDS011;49845;47.130;142.766;2023-09-07T09:20:51;22.93;;;10.33;;
63699;SDS011;49845;47.130;142.766;2023-09-07T09:23:22;20.17;;;10.87;;
63699;SDS011;49845;47.130;142.766;2023-09-07T09:25:56;19.27;;;9.07;;
63699;SDS011;49845;47.130;142.766;2023-09-07T09:28:30;14.00;;;8.03;;
63699;SDS011;49845;47.130;142.766;2023-09-07T09:31:02;12.87;;;7.53;;
63699;SDS011;49845;47.130;142.766;2023-09-07T09:33:38;12.60;;;7.40;;
63699;SDS011;49845;47.130;142.766;2023-09-07T09:36:10;15.70;;;7.73;;
63699;SDS011;49845;47.130;142.766;2023-09-07T09:38:46;12.47;;;7.10;;
63699;SDS011;49845;47.130;142.766;2023-09-07T09:41:25;19.13;;;8.15;;
63699;SDS011;49845;47.130;142.766;2023-09-07T09:44:00;18.60;;;9.90;;
63699;SDS011;49845;47.130;142.766;2023-09-07T09:46:34;17.53;;;9.20;;
63699;SDS011;49845;47.130;142.766;2023-09-07T09:49:08;12.97;;;8.07;;
63699;SDS011;49845;47.130;142.766;2023-09-07T09:51:41;20.87;;;8.50;;
63699;SDS011;49845;47.130;142.766;2023-09-07T09:54:15;15.77;;;7.57;;
63699;SDS011;49845;47.130;142.766;2023-09-07T09:56:50;17.40;;;7.73;;
63699;SDS011;49845;47.130;142.766;2023-09-07T09:59:22;16.10;;;8.07;;
63699;SDS011;49845;47.130;142.766;2023-09-07T10:01:54;17.93;;;7.57;;
63699;SDS011;49845;47.130;142.766;2023-09-07T10:04:26;15.43;;;6.97;;
63699;SDS011;49845;47.130;142.766;2023-09-07T10:06:59;12.50;;;7.17;;
63699;SDS011;49845;47.130;142.766;2023-09-07T10:09:33;15.80;;;6.97;;
63699;SDS011;49845;47.130;142.766;2023-09-07T10:12:11;16.70;;;8.57;;
63699;SDS011;49845;47.130;142.766;2023-09-07T10:14:44;14.23;;;8.60;;
63699;SDS011;49845;47.130;142.766;2023-09-07T10:17:22;15.07;;;9.43;;
63699;SDS011;49845;47.130;142.766;2023-09-07T10:20:01;16.27;;;8.67;;
63699;SDS011;49845;47.130;142.766;2023-09-07T10:22:35;14.80;;;8.90;;
63699;SDS011;49845;47.130;142.766;2023-09-07T10:25:17;15.93;;;9.23;;
63699;SDS011;49845;47.130;142.766;2023-09-07T10:27:52;20.67;;;11.80;;
63699;SDS011;49845;47.130;142.766;2023-09-07T10:30:25;15.70;;;8.93;;
63699;SDS011;49845;47.130;142.766;2023-09-07T10:32:57;15.60;;;7.73;;
63699;SDS011;49845;47.130;142.766;2023-09-07T10:35:30;14.50;;;7.75;;
63699;SDS011;49845;47.130;142.766;2023-09-07T10:38:06;15.25;;;7.63;;
63699;SDS011;49845;47.130;142.766;2023-09-07T10:40:38;13.43;;;7.22;;
63699;SDS011;49845;47.130;142.766;2023-09-07T10:43:13;10.10;;;6.75;;
63699;SDS011;49845;47.130;142.766;2023-09-07T10:45:44;15.75;;;7.40;;
63699;SDS011;49845;47.130;142.766;2023-09-07T10:48:17;15.63;;;7.05;;
63699;SDS011;49845;47.130;142.766;2023-09-07T10:50:50;15.70;;;8.52;;
63699;SDS011;49845;47.130;142.766;2023-09-07T10:53:25;15.20;;;9.25;;
63699;SDS011;49845;47.130;142.766;2023-09-07T10:55:59;15.73;;;8.20;;
63699;SDS011;49845;47.130;142.766;2023-09-07T10:58:34;24.67;;;11.63;;
63699;SDS011;49845;47.130;142.766;2023-09-07T11:01:09;18.05;;;8.82;;
63699;SDS011;49845;47.130;142.766;2023-09-07T11:03:44;18.95;;;9.45;;
63699;SDS011;49845;47.130;142.766;2023-09-07T11:06:16;18.30;;;10.15;;
63699;SDS011;49845;47.130;142.766;2023-09-07T11:08:53;21.55;;;9.35;;
63699;SDS011;49845;47.130;142.766;2023-09-07T11:11:26;23.08;;;10.82;;
63699;SDS011;49845;47.130;142.766;2023-09-07T11:14:01;18.30;;;9.35;;
63699;SDS011;49845;47.130;142.766;2023-09-07T11:16:33;18.73;;;8.70;;
63699;SDS011;49845;47.130;142.766;2023-09-07T11:19:06;12.20;;;7.88;;
63699;SDS011;49845;47.130;142.766;2023-09-07T11:21:38;24.15;;;6.97;;
63699;SDS011;49845;47.130;142.766;2023-09-07T11:24:11;14.73;;;6.80;;
63699;SDS011;49845;47.130;142.766;2023-09-07T11:26:44;15.25;;;6.20;;
63699;SDS011;49845;47.130;142.766;2023-09-07T11:29:19;15.77;;;6.55;;
63699;SDS011;49845;47.130;142.766;2023-09-07T11:31:51;12.90;;;7.32;;
63699;SDS011;49845;47.130;142.766;2023-09-07T11:34:22;16.05;;;7.57;;
63699;SDS011;49845;47.130;142.766;2023-09-07T11:36:54;14.65;;;8.10;;
63699;SDS011;49845;47.130;142.766;2023-09-07T11:39:25;14.48;;;8.40;;
63699;SDS011;49845;47.130;142.766;2023-09-07T11:41:57;14.93;;;7.93;;
63699;SDS011;49845;47.130;142.766;2023-09-07T11:44:31;13.70;;;7.65;;
63699;SDS011;49845;47.130;142.766;2023-09-07T11:47:03;12.90;;;6.70;;
63699;SDS011;49845;47.130;142.766;2023-09-07T11:49:34;14.43;;;6.35;;
63699;SDS011;49845;47.130;142.766;2023-09-07T11:52:08;11.93;;;6.30;;
63699;SDS011;49845;47.130;142.766;2023-09-07T11:54:40;13.65;;;6.50;;
63699;SDS011;49845;47.130;142.766;2023-09-07T11:57:12;11.63;;;6.30;;
63699;SDS011;49845;47.130;142.766;2023-09-07T11:59:45;9.70;;;5.57;;
63699;SDS011;49845;47.130;142.766;2023-09-07T12:02:25;13.50;;;5.80;;
63699;SDS011;49845;47.130;142.766;2023-09-07T12:04:57;10.20;;;5.95;;
63699;SDS011;49845;47.130;142.766;2023-09-07T12:07:29;11.27;;;6.22;;
63699;SDS011;49845;47.130;142.766;2023-09-07T12:10:01;12.38;;;6.68;;
63699;SDS011;49845;47.130;142.766;2023-09-07T12:12:32;11.77;;;6.25;;
63699;SDS011;49845;47.130;142.766;2023-09-07T12:15:06;12.38;;;6.60;;
63699;SDS011;49845;47.130;142.766;2023-09-07T12:17:39;10.75;;;5.65;;
63699;SDS011;49845;47.130;142.766;2023-09-07T12:20:11;14.40;;;5.95;;
63699;SDS011;49845;47.130;142.766;2023-09-07T12:22:43;11.23;;;5.80;;
63699;SDS011;49845;47.130;142.766;2023-09-07T12:25:15;12.73;;;5.53;;
63699;SDS011;49845;47.130;142.766;2023-09-07T12:27:47;11.23;;;5.32;;
63699;SDS011;49845;47.130;142.766;2023-09-07T12:30:22;12.73;;;5.97;;
63699;SDS011;49845;47.130;142.766;2023-09-07T12:32:56;11.20;;;5.00;;
63699;SDS011;49845;47.130;142.766;2023-09-07T12:35:28;13.25;;;6.05;;
63699;SDS011;49845;47.130;142.766;2023-09-07T12:37:59;14.48;;;5.82;;
63699;SDS011;49845;47.130;142.766;2023-09-07T12:40:32;10.38;;;5.68;;
63699;SDS011;49845;47.130;142.766;2023-09-07T12:43:05;8.52;;;5.15;;
63699;SDS011;49845;47.130;142.766;2023-09-07T12:45:38;11.82;;;5.50;;
63699;SDS011;49845;47.130;142.766;2023-09-07T12:48:11;13.15;;;5.57;;
63699;SDS011;49845;47.130;142.766;2023-09-07T12:50:43;11.00;;;6.20;;
63699;SDS011;49845;47.130;142.766;2023-09-07T12:53:14;11.15;;;5.72;;
63699;SDS011;49845;47.130;142.766;2023-09-07T12:55:47;10.43;;;5.45;;
63699;SDS011;49845;47.130;142.766;2023-09-07T12:58:19;11.52;;;5.70;;
63699;SDS011;49845;47.130;142.766;2023-09-07T13:00:53;9.15;;;6.03;;
63699;SDS011;49845;47.130;142.766;2023-09-07T13:03:24;16.92;;;6.80;;
63699;SDS011;49845;47.130;142.766;2023-09-07T13:05:57;12.15;;;5.72;;
63699;SDS011;49845;47.130;142.766;2023-09-07T13:08:28;11.50;;;5.43;;
63699;SDS011;49845;47.130;142.766;2023-09-07T13:11:02;14.88;;;5.70;;
63699;SDS011;49845;47.130;142.766;2023-09-07T13:13:34;8.70;;;5.43;;
63699;SDS011;49845;47.130;142.766;2023-09-07T13:16:08;11.43;;;5.97;;
63699;SDS011;49845;47.130;142.766;2023-09-07T13:18:40;9.75;;;5.53;;
63699;SDS011;49845;47.130;142.766;2023-09-07T13:21:12;11.48;;;5.70;;
63699;SDS011;49845;47.130;142.766;2023-09-07T13:23:44;7.18;;;4.90;;
63699;SDS011;49845;47.130;142.766;2023-09-07T13:26:15;16.70;;;5.53;;
63699;SDS011;49845;47.130;142.766;2023-09-07T13:28:47;10.70;;;5.43;;
63699;SDS011;49845;47.130;142.766;2023-09-07T13:31:20;8.05;;;4.97;;
63699;SDS011;49845;47.130;142.766;2023-09-07T13:33:53;11.75;;;5.05;;
63699;SDS011;49845;47.130;142.766;2023-09-07T13:36:50;13.68;;;5.53;;
63699;SDS011;49845;47.130;142.766;2023-09-07T13:39:23;10.52;;;4.97;;
63699;SDS011;49845;47.130;142.766;2023-09-07T13:42:00;13.38;;;5.60;;
63699;SDS011;49845;47.130;142.766;2023-09-07T13:44:31;12.98;;;5.47;;
63699;SDS011;49845;47.130;142.766;2023-09-07T13:47:08;7.65;;;5.22;;
63699;SDS011;49845;47.130;142.766;2023-09-07T13:49:41;12.60;;;5.68;;
63699;SDS011;49845;47.130;142.766;2023-09-07T13:52:12;15.82;;;5.93;;
63699;SDS011;49845;47.130;142.766;2023-09-07T13:54:48;10.18;;;5.38;;
63699;SDS011;49845;47.130;142.766;2023-09-07T13:57:24;13.32;;;5.50;;
63699;SDS011;49845;47.130;142.766;2023-09-07T14:00:02;14.95;;;6.13;;
63699;SDS011;49845;47.130;142.766;2023-09-07T14:02:41;12.00;;;5.13;;
63699;SDS011;49845;47.130;142.766;2023-09-07T14:05:14;10.45;;;5.18;;
63699;SDS011;49845;47.130;142.766;2023-09-07T14:07:53;11.10;;;5.70;;
63699;SDS011;49845;47.130;142.766;2023-09-07T14:10:28;9.68;;;5.95;;
63699;SDS011;49845;47.130;142.766;2023-09-07T14:13:02;8.90;;;5.68;;
63699;SDS011;49845;47.130;142.766;2023-09-07T14:15:34;12.70;;;5.85;;
63699;SDS011;49845;47.130;142.766;2023-09-07T14:18:09;10.63;;;5.60;;
63699;SDS011;49845;47.130;142.766;2023-09-07T14:20:47;7.97;;;5.25;;
63699;SDS011;49845;47.130;142.766;2023-09-07T14:23:18;11.43;;;5.10;;
63699;SDS011;49845;47.130;142.766;2023-09-07T14:25:50;10.07;;;5.10;;
63699;SDS011;49845;47.130;142.766;2023-09-07T14:28:24;9.98;;;5.55;;
63699;SDS011;49845;47.130;142.766;2023-09-07T14:30:56;8.98;;;5.30;;
63699;SDS011;49845;47.130;142.766;2023-09-07T14:33:33;12.80;;;5.53;;
63699;SDS011;49845;47.130;142.766;2023-09-07T14:36:06;12.90;;;5.10;;
63699;SDS011;49845;47.130;142.766;2023-09-07T14:38:39;10.45;;;5.85;;
63699;SDS011;49845;47.130;142.766;2023-09-07T14:41:12;13.27;;;5.78;;
63699;SDS011;49845;47.130;142.766;2023-09-07T14:43:47;11.10;;;5.53;;
63699;SDS011;49845;47.130;142.766;2023-09-07T14:46:20;20.02;;;5.22;;
63699;SDS011;49845;47.130;142.766;2023-09-07T14:48:55;10.00;;;5.13;;
63699;SDS011;49845;47.130;142.766;2023-09-07T14:51:26;18.50;;;6.13;;
63699;SDS011;49845;47.130;142.766;2023-09-07T14:53:58;8.95;;;5.28;;
63699;SDS011;49845;47.130;142.766;2023-09-07T14:56:31;14.23;;;5.13;;
63699;SDS011;49845;47.130;142.766;2023-09-07T14:59:03;13.18;;;5.95;;
63699;SDS011;49845;47.130;142.766;2023-09-07T15:01:38;8.15;;;5.32;;
63699;SDS011;49845;47.130;142.766;2023-09-07T15:04:18;7.63;;;4.90;;
63699;SDS011;49845;47.130;142.766;2023-09-07T15:06:56;9.55;;;5.07;;
63699;SDS011;49845;47.130;142.766;2023-09-07T15:09:27;17.00;;;5.15;;
63699;SDS011;49845;47.130;142.766;2023-09-07T15:11:59;12.10;;;5.07;;
63699;SDS011;49845;47.130;142.766;2023-09-07T15:14:40;9.80;;;5.50;;
63699;SDS011;49845;47.130;142.766;2023-09-07T15:17:17;9.68;;;4.97;;